sensor_id;sensor_type;location;lat;lon;timestamp;temperature;humidity
31729;DHT22;18309;43.658;1.312;2023-02-28T00:00:40;3.90;89.90
31729;DHT22;18309;43.658;1.312;2023-02-28T00:03:05;3.90;90.00
31729;DHT22;18309;43.658;1.312;2023-02-28T00:05:31;3.90;90.00
31729;DHT22;18309;43.658;1.312;2023-02-28T00:07:57;3.80;90.00
31729;DHT22;18309;43.658;1.312;2023-02-28T00:10:28;3.80;90.10
31729;DHT22;18309;43.658;1.312;2023-02-28T00:12:58;3.80;90.10
31729;DHT22;18309;43.658;1.312;2023-02-28T00:15:24;3.80;90.10
31729;DHT22;18309;43.658;1.312;2023-02-28T00:17:50;3.70;90.20
31729;DHT22;18309;43.658;1.312;2023-02-28T00:20:16;3.70;90.20
31729;DHT22;18309;43.658;1.312;2023-02-28T00:22:44;3.70;90.30
31729;DHT22;18309;43.658;1.312;2023-02-28T00:25:12;3.70;90.30
31729;DHT22;18309;43.658;1.312;2023-02-28T00:27:39;3.70;90.30
31729;DHT22;18309;43.658;1.312;2023-02-28T00:30:07;3.70;90.30
31729;DHT22;18309;43.658;1.312;2023-02-28T00:32:33;3.60;90.30
31729;DHT22;18309;43.658;1.312;2023-02-28T00:35:00;3.70;90.30
31729;DHT22;18309;43.658;1.312;2023-02-28T00:37:25;3.60;90.40
31729;DHT22;18309;43.658;1.312;2023-02-28T00:39:51;3.70;90.30
31729;DHT22;18309;43.658;1.312;2023-02-28T00:42:17;3.60;90.40
31729;DHT22;18309;43.658;1.312;2023-02-28T00:44:42;3.50;90.50
31729;DHT22;18309;43.658;1.312;2023-02-28T00:47:08;3.50;90.40
31729;DHT22;18309;43.658;1.312;2023-02-28T00:49:34;3.50;90.50
31729;DHT22;18309;43.658;1.312;2023-02-28T00:51:59;3.50;90.50
31729;DHT22;18309;43.658;1.312;2023-02-28T00:54:25;3.50;90.50
31729;DHT22;18309;43.658;1.312;2023-02-28T00:56:51;3.50;90.50
31729;DHT22;18309;43.658;1.312;2023-02-28T00:59:17;3.50;90.50
31729;DHT22;18309;43.658;1.312;2023-02-28T01:01:45;3.50;90.60
31729;DHT22;18309;43.658;1.312;2023-02-28T01:04:11;3.50;90.60
31729;DHT22;18309;43.658;1.312;2023-02-28T01:06:36;3.40;90.60
31729;DHT22;18309;43.658;1.312;2023-02-28T01:09:04;3.50;90.70
31729;DHT22;18309;43.658;1.312;2023-02-28T01:11:30;3.40;90.60
31729;DHT22;18309;43.658;1.312;2023-02-28T01:13:56;3.40;90.70
31729;DHT22;18309;43.658;1.312;2023-02-28T01:16:22;3.40;90.80
31729;DHT22;18309;43.658;1.312;2023-02-28T01:18:47;3.40;90.80
31729;DHT22;18309;43.658;1.312;2023-02-28T01:21:16;3.40;90.80
31729;DHT22;18309;43.658;1.312;2023-02-28T01:23:42;3.40;90.90
31729;DHT22;18309;43.658;1.312;2023-02-28T01:26:13;3.40;90.90
31729;DHT22;18309;43.658;1.312;2023-02-28T01:28:39;3.40;91.00
31729;DHT22;18309;43.658;1.312;2023-02-28T01:31:05;3.40;91.00
31729;DHT22;18309;43.658;1.312;2023-02-28T01:33:31;3.40;91.00
31729;DHT22;18309;43.658;1.312;2023-02-28T01:36:04;3.40;91.00
31729;DHT22;18309;43.658;1.312;2023-02-28T01:38:31;3.40;91.10
31729;DHT22;18309;43.658;1.312;2023-02-28T01:40:57;3.30;91.00
31729;DHT22;18309;43.658;1.312;2023-02-28T01:45:52;3.30;91.40
31729;DHT22;18309;43.658;1.312;2023-02-28T01:48:19;3.30;91.10
31729;DHT22;18309;43.658;1.312;2023-02-28T01:50:47;3.30;91.10
31729;DHT22;18309;43.658;1.312;2023-02-28T01:53:18;3.30;91.20
31729;DHT22;18309;43.658;1.312;2023-02-28T01:55:47;3.30;91.20
31729;DHT22;18309;43.658;1.312;2023-02-28T01:58:14;3.30;91.20
31729;DHT22;18309;43.658;1.312;2023-02-28T02:00:41;3.30;91.20
31729;DHT22;18309;43.658;1.312;2023-02-28T02:03:13;3.30;91.30
31729;DHT22;18309;43.658;1.312;2023-02-28T02:05:40;3.30;91.30
31729;DHT22;18309;43.658;1.312;2023-02-28T02:08:15;3.30;91.30
31729;DHT22;18309;43.658;1.312;2023-02-28T02:10:42;3.40;91.30
31729;DHT22;18309;43.658;1.312;2023-02-28T02:13:35;3.40;91.30
31729;DHT22;18309;43.658;1.312;2023-02-28T02:20:26;3.40;91.40
31729;DHT22;18309;43.658;1.312;2023-02-28T02:34:41;3.40;91.50
31729;DHT22;18309;43.658;1.312;2023-02-28T02:40:42;3.40;91.80
31729;DHT22;18309;43.658;1.312;2023-02-28T02:43:45;3.50;91.60
31729;DHT22;18309;43.658;1.312;2023-02-28T02:46:20;3.40;91.60
31729;DHT22;18309;43.658;1.312;2023-02-28T02:48:47;3.50;91.60
31729;DHT22;18309;43.658;1.312;2023-02-28T02:51:19;3.40;91.50
31729;DHT22;18309;43.658;1.312;2023-02-28T02:53:54;3.50;91.60
31729;DHT22;18309;43.658;1.312;2023-02-28T02:56:24;3.40;91.50
31729;DHT22;18309;43.658;1.312;2023-02-28T02:58:53;3.40;91.60
31729;DHT22;18309;43.658;1.312;2023-02-28T03:01:22;3.50;91.60
31729;DHT22;18309;43.658;1.312;2023-02-28T03:03:57;3.50;91.50
31729;DHT22;18309;43.658;1.312;2023-02-28T03:06:24;3.50;91.50
31729;DHT22;18309;43.658;1.312;2023-02-28T03:08:50;3.50;91.60
31729;DHT22;18309;43.658;1.312;2023-02-28T03:11:16;3.50;91.50
31729;DHT22;18309;43.658;1.312;2023-02-28T03:14:00;3.50;91.60
31729;DHT22;18309;43.658;1.312;2023-02-28T03:20:48;3.60;91.50
31729;DHT22;18309;43.658;1.312;2023-02-28T03:23:16;3.60;91.50
31729;DHT22;18309;43.658;1.312;2023-02-28T03:26:04;3.60;91.50
31729;DHT22;18309;43.658;1.312;2023-02-28T03:34:10;3.50;91.60
31729;DHT22;18309;43.658;1.312;2023-02-28T03:36:47;3.60;91.60
31729;DHT22;18309;43.658;1.312;2023-02-28T03:39:22;3.60;91.60
31729;DHT22;18309;43.658;1.312;2023-02-28T03:41:56;3.60;91.70
31729;DHT22;18309;43.658;1.312;2023-02-28T03:44:36;3.60;91.70
31729;DHT22;18309;43.658;1.312;2023-02-28T03:47:14;3.60;91.60
31729;DHT22;18309;43.658;1.312;2023-02-28T03:49:49;3.60;91.60
31729;DHT22;18309;43.658;1.312;2023-02-28T03:52:18;3.60;91.50
31729;DHT22;18309;43.658;1.312;2023-02-28T03:54:50;3.60;91.60
31729;DHT22;18309;43.658;1.312;2023-02-28T04:00:02;3.60;91.60
31729;DHT22;18309;43.658;1.312;2023-02-28T04:02:31;3.60;91.60
31729;DHT22;18309;43.658;1.312;2023-02-28T04:04:57;3.60;91.60
31729;DHT22;18309;43.658;1.312;2023-02-28T04:07:23;3.60;91.60
31729;DHT22;18309;43.658;1.312;2023-02-28T04:09:48;3.60;91.60
31729;DHT22;18309;43.658;1.312;2023-02-28T04:12:14;3.60;91.70
31729;DHT22;18309;43.658;1.312;2023-02-28T04:14:40;3.60;91.70
31729;DHT22;18309;43.658;1.312;2023-02-28T04:17:05;3.60;91.70
31729;DHT22;18309;43.658;1.312;2023-02-28T04:19:31;3.60;91.70
31729;DHT22;18309;43.658;1.312;2023-02-28T04:21:57;3.60;91.70
31729;DHT22;18309;43.658;1.312;2023-02-28T04:24:25;3.60;91.70
31729;DHT22;18309;43.658;1.312;2023-02-28T04:26:52;3.60;91.70
31729;DHT22;18309;43.658;1.312;2023-02-28T04:29:24;3.60;91.70
31729;DHT22;18309;43.658;1.312;2023-02-28T04:31:50;3.60;91.70
31729;DHT22;18309;43.658;1.312;2023-02-28T04:34:19;3.60;91.70
31729;DHT22;18309;43.658;1.312;2023-02-28T04:36:45;3.60;91.80
31729;DHT22;18309;43.658;1.312;2023-02-28T04:39:11;3.60;91.80
31729;DHT22;18309;43.658;1.312;2023-02-28T04:41:37;3.60;91.80
31729;DHT22;18309;43.658;1.312;2023-02-28T04:44:03;3.60;91.80
31729;DHT22;18309;43.658;1.312;2023-02-28T04:46:29;3.60;91.80
31729;DHT22;18309;43.658;1.312;2023-02-28T04:48:55;3.60;91.90
31729;DHT22;18309;43.658;1.312;2023-02-28T04:51:21;3.60;91.90
31729;DHT22;18309;43.658;1.312;2023-02-28T04:53:47;3.60;91.90
31729;DHT22;18309;43.658;1.312;2023-02-28T04:56:15;3.60;91.90
31729;DHT22;18309;43.658;1.312;2023-02-28T04:58:42;3.60;92.00
31729;DHT22;18309;43.658;1.312;2023-02-28T05:01:27;3.60;92.10
31729;DHT22;18309;43.658;1.312;2023-02-28T05:03:55;3.60;92.10
31729;DHT22;18309;43.658;1.312;2023-02-28T05:06:26;3.60;92.10
31729;DHT22;18309;43.658;1.312;2023-02-28T05:08:52;3.60;92.10
31729;DHT22;18309;43.658;1.312;2023-02-28T05:11:19;3.60;92.20
31729;DHT22;18309;43.658;1.312;2023-02-28T05:13:46;3.60;92.20
31729;DHT22;18309;43.658;1.312;2023-02-28T05:16:12;3.50;92.30
31729;DHT22;18309;43.658;1.312;2023-02-28T05:18:38;3.50;92.30
31729;DHT22;18309;43.658;1.312;2023-02-28T05:21:04;3.60;92.30
31729;DHT22;18309;43.658;1.312;2023-02-28T05:23:30;3.50;92.20
31729;DHT22;18309;43.658;1.312;2023-02-28T05:25:56;3.50;92.20
31729;DHT22;18309;43.658;1.312;2023-02-28T05:28:22;3.50;92.30
31729;DHT22;18309;43.658;1.312;2023-02-28T05:30:48;3.50;92.30
31729;DHT22;18309;43.658;1.312;2023-02-28T05:33:14;3.50;92.30
31729;DHT22;18309;43.658;1.312;2023-02-28T05:35:40;3.40;92.30
31729;DHT22;18309;43.658;1.312;2023-02-28T05:38:07;3.40;92.30
31729;DHT22;18309;43.658;1.312;2023-02-28T05:40:32;3.40;92.40
31729;DHT22;18309;43.658;1.312;2023-02-28T05:42:58;3.40;92.40
31729;DHT22;18309;43.658;1.312;2023-02-28T05:45:23;3.40;92.40
31729;DHT22;18309;43.658;1.312;2023-02-28T05:47:53;3.40;92.40
31729;DHT22;18309;43.658;1.312;2023-02-28T05:50:19;3.30;92.50
31729;DHT22;18309;43.658;1.312;2023-02-28T05:52:51;3.30;92.50
31729;DHT22;18309;43.658;1.312;2023-02-28T05:55:17;3.30;92.50
31729;DHT22;18309;43.658;1.312;2023-02-28T05:57:44;3.30;92.50
31729;DHT22;18309;43.658;1.312;2023-02-28T06:00:10;3.30;92.50
31729;DHT22;18309;43.658;1.312;2023-02-28T06:02:37;3.20;92.50
31729;DHT22;18309;43.658;1.312;2023-02-28T06:05:03;3.20;92.60
31729;DHT22;18309;43.658;1.312;2023-02-28T06:07:29;3.20;92.60
31729;DHT22;18309;43.658;1.312;2023-02-28T06:09:55;3.20;92.60
31729;DHT22;18309;43.658;1.312;2023-02-28T06:12:20;3.10;92.60
31729;DHT22;18309;43.658;1.312;2023-02-28T06:14:46;3.10;92.80
31729;DHT22;18309;43.658;1.312;2023-02-28T06:17:11;3.10;92.90
31729;DHT22;18309;43.658;1.312;2023-02-28T06:19:38;3.10;92.90
31729;DHT22;18309;43.658;1.312;2023-02-28T06:22:06;3.10;93.20
31729;DHT22;18309;43.658;1.312;2023-02-28T06:24:32;3.10;92.90
31729;DHT22;18309;43.658;1.312;2023-02-28T06:26:58;3.10;93.00
31729;DHT22;18309;43.658;1.312;2023-02-28T06:29:31;3.10;93.00
31729;DHT22;18309;43.658;1.312;2023-02-28T06:31:57;3.00;92.90
31729;DHT22;18309;43.658;1.312;2023-02-28T06:34:23;3.10;93.00
31729;DHT22;18309;43.658;1.312;2023-02-28T06:36:51;3.00;92.90
31729;DHT22;18309;43.658;1.312;2023-02-28T06:39:17;3.00;93.00
31729;DHT22;18309;43.658;1.312;2023-02-28T06:41:43;3.00;93.10
31729;DHT22;18309;43.658;1.312;2023-02-28T06:44:17;2.90;93.10
31729;DHT22;18309;43.658;1.312;2023-02-28T06:46:44;2.90;93.10
31729;DHT22;18309;43.658;1.312;2023-02-28T06:49:11;2.90;93.20
31729;DHT22;18309;43.658;1.312;2023-02-28T06:51:38;2.90;93.20
31729;DHT22;18309;43.658;1.312;2023-02-28T06:54:04;2.90;93.20
31729;DHT22;18309;43.658;1.312;2023-02-28T06:56:31;2.90;93.30
31729;DHT22;18309;43.658;1.312;2023-02-28T06:58:56;2.90;93.30
31729;DHT22;18309;43.658;1.312;2023-02-28T07:01:23;2.90;93.40
31729;DHT22;18309;43.658;1.312;2023-02-28T07:03:49;2.90;93.40
31729;DHT22;18309;43.658;1.312;2023-02-28T07:06:18;2.90;93.40
31729;DHT22;18309;43.658;1.312;2023-02-28T07:08:44;2.90;93.40
31729;DHT22;18309;43.658;1.312;2023-02-28T07:11:10;2.90;93.40
31729;DHT22;18309;43.658;1.312;2023-02-28T07:13:36;2.90;93.40
31729;DHT22;18309;43.658;1.312;2023-02-28T07:16:04;2.90;93.40
31729;DHT22;18309;43.658;1.312;2023-02-28T07:18:31;2.90;93.40
31729;DHT22;18309;43.658;1.312;2023-02-28T07:20:57;2.90;93.40
31729;DHT22;18309;43.658;1.312;2023-02-28T07:23:23;2.90;93.40
31729;DHT22;18309;43.658;1.312;2023-02-28T07:25:50;2.70;94.40
31729;DHT22;18309;43.658;1.312;2023-02-28T07:28:16;2.20;94.80
31729;DHT22;18309;43.658;1.312;2023-02-28T07:30:42;1.80;95.30
31729;DHT22;18309;43.658;1.312;2023-02-28T07:33:08;1.70;96.00
31729;DHT22;18309;43.658;1.312;2023-02-28T07:35:34;1.70;95.80
31729;DHT22;18309;43.658;1.312;2023-02-28T07:38:00;1.80;95.80
31729;DHT22;18309;43.658;1.312;2023-02-28T07:40:26;1.80;96.00
31729;DHT22;18309;43.658;1.312;2023-02-28T07:42:52;1.90;95.60
31729;DHT22;18309;43.658;1.312;2023-02-28T07:45:18;1.80;95.50
31729;DHT22;18309;43.658;1.312;2023-02-28T07:47:44;1.80;95.50
31729;DHT22;18309;43.658;1.312;2023-02-28T07:50:13;1.90;95.40
31729;DHT22;18309;43.658;1.312;2023-02-28T07:52:40;1.90;95.30
31729;DHT22;18309;43.658;1.312;2023-02-28T07:55:07;2.00;95.30
31729;DHT22;18309;43.658;1.312;2023-02-28T07:57:33;2.00;95.30
31729;DHT22;18309;43.658;1.312;2023-02-28T07:59:59;2.00;95.30
31729;DHT22;18309;43.658;1.312;2023-02-28T08:02:25;2.10;95.10
31729;DHT22;18309;43.658;1.312;2023-02-28T08:04:50;2.10;95.00
31729;DHT22;18309;43.658;1.312;2023-02-28T08:07:17;2.30;94.90
31729;DHT22;18309;43.658;1.312;2023-02-28T08:09:44;2.30;94.40
31729;DHT22;18309;43.658;1.312;2023-02-28T08:12:11;2.30;94.40
31729;DHT22;18309;43.658;1.312;2023-02-28T08:17:53;2.40;94.20
31729;DHT22;18309;43.658;1.312;2023-02-28T08:20:19;2.40;94.10
31729;DHT22;18309;43.658;1.312;2023-02-28T08:22:44;2.50;94.20
31729;DHT22;18309;43.658;1.312;2023-02-28T08:25:10;2.40;93.80
31729;DHT22;18309;43.658;1.312;2023-02-28T08:27:36;2.40;93.70
31729;DHT22;18309;43.658;1.312;2023-02-28T08:30:03;2.50;93.90
31729;DHT22;18309;43.658;1.312;2023-02-28T08:32:28;2.50;93.70
31729;DHT22;18309;43.658;1.312;2023-02-28T08:34:54;2.50;93.70
31729;DHT22;18309;43.658;1.312;2023-02-28T08:37:20;2.60;93.60
31729;DHT22;18309;43.658;1.312;2023-02-28T08:39:45;2.60;93.60
31729;DHT22;18309;43.658;1.312;2023-02-28T08:42:11;2.60;93.70
31729;DHT22;18309;43.658;1.312;2023-02-28T08:44:37;2.70;93.70
31729;DHT22;18309;43.658;1.312;2023-02-28T08:47:03;2.70;93.70
31729;DHT22;18309;43.658;1.312;2023-02-28T08:49:28;2.70;93.90
31729;DHT22;18309;43.658;1.312;2023-02-28T08:51:54;2.70;93.80
31729;DHT22;18309;43.658;1.312;2023-02-28T08:54:22;2.70;93.50
31729;DHT22;18309;43.658;1.312;2023-02-28T08:56:48;2.70;93.40
31729;DHT22;18309;43.658;1.312;2023-02-28T08:59:14;2.80;93.30
31729;DHT22;18309;43.658;1.312;2023-02-28T09:01:40;2.70;93.10
31729;DHT22;18309;43.658;1.312;2023-02-28T09:04:09;2.80;93.20
31729;DHT22;18309;43.658;1.312;2023-02-28T09:06:36;2.80;93.20
31729;DHT22;18309;43.658;1.312;2023-02-28T09:09:02;2.90;92.70
31729;DHT22;18309;43.658;1.312;2023-02-28T09:11:31;2.90;92.90
31729;DHT22;18309;43.658;1.312;2023-02-28T09:13:57;3.00;92.90
31729;DHT22;18309;43.658;1.312;2023-02-28T09:16:24;3.10;92.90
31729;DHT22;18309;43.658;1.312;2023-02-28T09:18:50;3.10;92.60
31729;DHT22;18309;43.658;1.312;2023-02-28T09:21:17;3.10;92.20
31729;DHT22;18309;43.658;1.312;2023-02-28T09:23:45;3.10;92.40
31729;DHT22;18309;43.658;1.312;2023-02-28T09:28:41;3.30;91.80
31729;DHT22;18309;43.658;1.312;2023-02-28T09:31:15;3.40;91.90
31729;DHT22;18309;43.658;1.312;2023-02-28T09:33:41;3.40;91.60
31729;DHT22;18309;43.658;1.312;2023-02-28T09:36:07;3.50;91.90
31729;DHT22;18309;43.658;1.312;2023-02-28T09:38:33;3.60;91.60
31729;DHT22;18309;43.658;1.312;2023-02-28T09:41:02;3.60;91.30
31729;DHT22;18309;43.658;1.312;2023-02-28T09:43:34;3.70;91.40
31729;DHT22;18309;43.658;1.312;2023-02-28T09:49:12;3.90;90.70
31729;DHT22;18309;43.658;1.312;2023-02-28T09:54:17;3.90;90.40
31729;DHT22;18309;43.658;1.312;2023-02-28T10:02:23;4.10;90.20
31729;DHT22;18309;43.658;1.312;2023-02-28T10:05:02;4.10;90.50
31729;DHT22;18309;43.658;1.312;2023-02-28T10:10:26;4.00;90.10
31729;DHT22;18309;43.658;1.312;2023-02-28T10:12:56;4.10;90.40
31729;DHT22;18309;43.658;1.312;2023-02-28T10:15:24;4.20;90.20
31729;DHT22;18309;43.658;1.312;2023-02-28T10:17:54;4.10;90.10
31729;DHT22;18309;43.658;1.312;2023-02-28T10:20:23;4.10;90.10
31729;DHT22;18309;43.658;1.312;2023-02-28T10:23:17;4.20;90.40
31729;DHT22;18309;43.658;1.312;2023-02-28T10:25:50;4.30;90.00
31729;DHT22;18309;43.658;1.312;2023-02-28T10:28:18;4.40;90.10
31729;DHT22;18309;43.658;1.312;2023-02-28T10:30:47;4.40;90.00
31729;DHT22;18309;43.658;1.312;2023-02-28T10:33:22;4.40;90.20
31729;DHT22;18309;43.658;1.312;2023-02-28T10:35:48;4.50;90.40
31729;DHT22;18309;43.658;1.312;2023-02-28T10:38:23;4.40;90.00
31729;DHT22;18309;43.658;1.312;2023-02-28T10:40:50;4.40;90.10
31729;DHT22;18309;43.658;1.312;2023-02-28T10:48:41;4.50;90.00
31729;DHT22;18309;43.658;1.312;2023-02-28T10:51:14;4.60;90.10
31729;DHT22;18309;43.658;1.312;2023-02-28T10:53:52;4.60;89.80
31729;DHT22;18309;43.658;1.312;2023-02-28T10:56:21;4.60;89.50
31729;DHT22;18309;43.658;1.312;2023-02-28T10:58:52;4.80;90.20
31729;DHT22;18309;43.658;1.312;2023-02-28T11:07:18;4.80;88.50
31729;DHT22;18309;43.658;1.312;2023-02-28T11:10:16;4.90;88.50
31729;DHT22;18309;43.658;1.312;2023-02-28T11:12:44;5.00;87.60
31729;DHT22;18309;43.658;1.312;2023-02-28T11:15:25;5.10;86.40
31729;DHT22;18309;43.658;1.312;2023-02-28T11:20:38;5.10;85.20
31729;DHT22;18309;43.658;1.312;2023-02-28T11:23:05;5.10;86.20
31729;DHT22;18309;43.658;1.312;2023-02-28T11:25:37;5.20;84.10
31729;DHT22;18309;43.658;1.312;2023-02-28T11:28:34;5.20;84.40
31729;DHT22;18309;43.658;1.312;2023-02-28T11:33:52;5.20;84.20
31729;DHT22;18309;43.658;1.312;2023-02-28T11:39:10;5.40;83.20
31729;DHT22;18309;43.658;1.312;2023-02-28T11:53:57;5.60;80.70
31729;DHT22;18309;43.658;1.312;2023-02-28T11:56:09;5.70;81.40
31729;DHT22;18309;43.658;1.312;2023-02-28T12:06:58;5.70;79.30
31729;DHT22;18309;43.658;1.312;2023-02-28T12:31:40;5.70;78.80
31729;DHT22;18309;43.658;1.312;2023-02-28T12:34:11;5.60;79.00
31729;DHT22;18309;43.658;1.312;2023-02-28T12:36:39;5.60;79.30
31729;DHT22;18309;43.658;1.312;2023-02-28T12:39:30;5.70;80.60
31729;DHT22;18309;43.658;1.312;2023-02-28T12:42:05;5.90;80.00
31729;DHT22;18309;43.658;1.312;2023-02-28T12:47:17;5.90;77.20
31729;DHT22;18309;43.658;1.312;2023-02-28T12:49:50;5.80;76.70
31729;DHT22;18309;43.658;1.312;2023-02-28T12:52:28;5.70;77.80
31729;DHT22;18309;43.658;1.312;2023-02-28T12:55:05;5.80;78.50
31729;DHT22;18309;43.658;1.312;2023-02-28T12:57:44;5.80;77.80
31729;DHT22;18309;43.658;1.312;2023-02-28T13:00:19;5.70;76.60
31729;DHT22;18309;43.658;1.312;2023-02-28T13:05:42;5.60;76.00
31729;DHT22;18309;43.658;1.312;2023-02-28T13:08:23;5.60;75.70
31729;DHT22;18309;43.658;1.312;2023-02-28T13:10:53;5.60;75.60
31729;DHT22;18309;43.658;1.312;2023-02-28T13:13:27;5.60;76.60
31729;DHT22;18309;43.658;1.312;2023-02-28T13:16:06;5.70;74.00
31729;DHT22;18309;43.658;1.312;2023-02-28T13:21:03;5.90;75.30
31729;DHT22;18309;43.658;1.312;2023-02-28T13:23:57;6.00;74.10
31729;DHT22;18309;43.658;1.312;2023-02-28T13:29:03;6.20;73.10
31729;DHT22;18309;43.658;1.312;2023-02-28T13:34:41;6.40;71.90
31729;DHT22;18309;43.658;1.312;2023-02-28T13:39:55;6.60;71.90
31729;DHT22;18309;43.658;1.312;2023-02-28T13:47:41;6.40;70.60
31729;DHT22;18309;43.658;1.312;2023-02-28T13:50:37;6.30;72.00
31729;DHT22;18309;43.658;1.312;2023-02-28T14:06:37;5.90;75.20
31729;DHT22;18309;43.658;1.312;2023-02-28T14:09:32;5.90;75.90
31729;DHT22;18309;43.658;1.312;2023-02-28T14:15:04;6.20;75.50
31729;DHT22;18309;43.658;1.312;2023-02-28T14:17:31;6.10;74.70
31729;DHT22;18309;43.658;1.312;2023-02-28T14:19:57;5.90;72.90
31729;DHT22;18309;43.658;1.312;2023-02-28T14:25:23;6.20;71.30
31729;DHT22;18309;43.658;1.312;2023-02-28T14:28:14;6.40;70.70
31729;DHT22;18309;43.658;1.312;2023-02-28T14:31:09;6.40;70.50
31729;DHT22;18309;43.658;1.312;2023-02-28T14:36:21;6.50;70.10
31729;DHT22;18309;43.658;1.312;2023-02-28T14:38:56;6.60;70.10
31729;DHT22;18309;43.658;1.312;2023-02-28T14:41:30;6.90;70.00
31729;DHT22;18309;43.658;1.312;2023-02-28T14:43:58;7.10;68.90
31729;DHT22;18309;43.658;1.312;2023-02-28T14:46:39;7.10;67.70
31729;DHT22;18309;43.658;1.312;2023-02-28T14:49:06;6.70;68.30
31729;DHT22;18309;43.658;1.312;2023-02-28T14:51:35;6.50;68.50
31729;DHT22;18309;43.658;1.312;2023-02-28T14:54:02;6.40;69.40
31729;DHT22;18309;43.658;1.312;2023-02-28T14:56:39;6.40;69.30
31729;DHT22;18309;43.658;1.312;2023-02-28T14:59:17;6.30;69.20
31729;DHT22;18309;43.658;1.312;2023-02-28T15:01:48;6.40;69.30
31729;DHT22;18309;43.658;1.312;2023-02-28T15:04:22;6.50;69.20
31729;DHT22;18309;43.658;1.312;2023-02-28T15:07:10;6.50;69.90
31729;DHT22;18309;43.658;1.312;2023-02-28T15:09:36;6.50;69.50
31729;DHT22;18309;43.658;1.312;2023-02-28T15:12:02;6.50;69.90
31729;DHT22;18309;43.658;1.312;2023-02-28T15:14:28;6.40;68.00
31729;DHT22;18309;43.658;1.312;2023-02-28T15:17:14;6.60;68.60
31729;DHT22;18309;43.658;1.312;2023-02-28T15:19:45;6.60;68.70
31729;DHT22;18309;43.658;1.312;2023-02-28T15:22:17;6.40;67.70
31729;DHT22;18309;43.658;1.312;2023-02-28T15:24:50;6.30;68.40
31729;DHT22;18309;43.658;1.312;2023-02-28T15:27:28;6.30;68.90
31729;DHT22;18309;43.658;1.312;2023-02-28T15:29:59;6.20;68.60
31729;DHT22;18309;43.658;1.312;2023-02-28T15:32:33;6.10;68.50
31729;DHT22;18309;43.658;1.312;2023-02-28T15:40:41;6.20;69.60
31729;DHT22;18309;43.658;1.312;2023-02-28T15:43:16;6.20;69.90
31729;DHT22;18309;43.658;1.312;2023-02-28T15:48:33;6.10;70.00
31729;DHT22;18309;43.658;1.312;2023-02-28T15:51:08;6.00;69.80
31729;DHT22;18309;43.658;1.312;2023-02-28T15:53:56;5.90;69.90
31729;DHT22;18309;43.658;1.312;2023-02-28T15:56:29;5.90;69.70
31729;DHT22;18309;43.658;1.312;2023-02-28T15:59:00;5.90;70.10
31729;DHT22;18309;43.658;1.312;2023-02-28T16:01:37;6.00;70.30
31729;DHT22;18309;43.658;1.312;2023-02-28T16:04:06;6.00;70.30
31729;DHT22;18309;43.658;1.312;2023-02-28T16:09:13;5.90;71.00
31729;DHT22;18309;43.658;1.312;2023-02-28T16:11:48;6.00;71.90
31729;DHT22;18309;43.658;1.312;2023-02-28T16:14:26;6.00;71.50
31729;DHT22;18309;43.658;1.312;2023-02-28T16:17:05;5.90;70.80
31729;DHT22;18309;43.658;1.312;2023-02-28T16:19:31;5.90;70.80
31729;DHT22;18309;43.658;1.312;2023-02-28T16:21:57;5.80;70.50
31729;DHT22;18309;43.658;1.312;2023-02-28T16:24:23;5.80;70.90
31729;DHT22;18309;43.658;1.312;2023-02-28T16:26:51;5.70;69.40
31729;DHT22;18309;43.658;1.312;2023-02-28T16:29:34;5.80;70.30
31729;DHT22;18309;43.658;1.312;2023-02-28T16:32:04;5.80;69.60
31729;DHT22;18309;43.658;1.312;2023-02-28T16:34:30;5.80;69.80
31729;DHT22;18309;43.658;1.312;2023-02-28T16:36:56;5.80;69.80
31729;DHT22;18309;43.658;1.312;2023-02-28T16:39:21;5.70;70.50
31729;DHT22;18309;43.658;1.312;2023-02-28T16:41:48;5.80;71.90
31729;DHT22;18309;43.658;1.312;2023-02-28T16:44:26;5.70;73.10
31729;DHT22;18309;43.658;1.312;2023-02-28T16:46:53;5.70;74.20
31729;DHT22;18309;43.658;1.312;2023-02-28T16:49:18;5.70;74.30
31729;DHT22;18309;43.658;1.312;2023-02-28T16:51:44;5.70;74.60
31729;DHT22;18309;43.658;1.312;2023-02-28T16:54:09;5.70;74.90
31729;DHT22;18309;43.658;1.312;2023-02-28T16:56:35;5.60;75.90
31729;DHT22;18309;43.658;1.312;2023-02-28T16:59:02;5.60;75.50
31729;DHT22;18309;43.658;1.312;2023-02-28T17:01:27;5.60;75.80
31729;DHT22;18309;43.658;1.312;2023-02-28T17:03:54;5.50;76.30
31729;DHT22;18309;43.658;1.312;2023-02-28T17:06:23;5.60;76.20
31729;DHT22;18309;43.658;1.312;2023-02-28T17:08:51;5.50;75.70
31729;DHT22;18309;43.658;1.312;2023-02-28T17:11:18;5.50;75.90
31729;DHT22;18309;43.658;1.312;2023-02-28T17:13:44;5.40;75.70
31729;DHT22;18309;43.658;1.312;2023-02-28T17:16:30;5.40;75.70
31729;DHT22;18309;43.658;1.312;2023-02-28T17:19:02;5.40;75.90
31729;DHT22;18309;43.658;1.312;2023-02-28T17:21:29;5.40;76.20
31729;DHT22;18309;43.658;1.312;2023-02-28T17:23:55;5.40;75.80
31729;DHT22;18309;43.658;1.312;2023-02-28T17:26:22;5.40;76.40
31729;DHT22;18309;43.658;1.312;2023-02-28T17:28:54;5.40;76.60
31729;DHT22;18309;43.658;1.312;2023-02-28T17:31:26;5.40;75.00
31729;DHT22;18309;43.658;1.312;2023-02-28T17:33:53;5.30;75.50
31729;DHT22;18309;43.658;1.312;2023-02-28T17:36:24;5.30;75.00
31729;DHT22;18309;43.658;1.312;2023-02-28T17:38:51;5.30;75.80
31729;DHT22;18309;43.658;1.312;2023-02-28T17:41:17;5.30;75.40
31729;DHT22;18309;43.658;1.312;2023-02-28T17:43:43;5.30;75.50
31729;DHT22;18309;43.658;1.312;2023-02-28T17:46:19;5.30;75.80
31729;DHT22;18309;43.658;1.312;2023-02-28T17:48:50;5.20;76.10
31729;DHT22;18309;43.658;1.312;2023-02-28T17:51:17;5.20;76.20
31729;DHT22;18309;43.658;1.312;2023-02-28T17:53:43;5.30;76.50
31729;DHT22;18309;43.658;1.312;2023-02-28T17:56:29;5.20;77.00
31729;DHT22;18309;43.658;1.312;2023-02-28T17:58:56;5.20;77.30
31729;DHT22;18309;43.658;1.312;2023-02-28T18:01:22;5.20;77.60
31729;DHT22;18309;43.658;1.312;2023-02-28T18:03:50;5.20;77.70
31729;DHT22;18309;43.658;1.312;2023-02-28T18:08:46;5.20;78.00
31729;DHT22;18309;43.658;1.312;2023-02-28T18:11:12;5.20;78.40
31729;DHT22;18309;43.658;1.312;2023-02-28T18:13:47;5.10;78.50
31729;DHT22;18309;43.658;1.312;2023-02-28T18:16:13;5.20;78.20
31729;DHT22;18309;43.658;1.312;2023-02-28T18:18:39;5.20;77.80
31729;DHT22;18309;43.658;1.312;2023-02-28T18:21:09;5.20;78.00
31729;DHT22;18309;43.658;1.312;2023-02-28T18:23:35;5.10;77.70
31729;DHT22;18309;43.658;1.312;2023-02-28T18:26:02;5.10;77.90
31729;DHT22;18309;43.658;1.312;2023-02-28T18:28:31;5.10;78.00
31729;DHT22;18309;43.658;1.312;2023-02-28T18:31:05;5.10;78.00
31729;DHT22;18309;43.658;1.312;2023-02-28T18:33:30;5.10;78.00
31729;DHT22;18309;43.658;1.312;2023-02-28T18:35:56;5.00;78.00
31729;DHT22;18309;43.658;1.312;2023-02-28T18:38:22;5.00;77.80
31729;DHT22;18309;43.658;1.312;2023-02-28T18:41:00;5.00;77.90
31729;DHT22;18309;43.658;1.312;2023-02-28T18:43:27;5.00;77.60
31729;DHT22;18309;43.658;1.312;2023-02-28T18:45:53;5.00;77.70
31729;DHT22;18309;43.658;1.312;2023-02-28T18:48:19;5.00;78.00
31729;DHT22;18309;43.658;1.312;2023-02-28T18:50:47;5.00;77.60
31729;DHT22;18309;43.658;1.312;2023-02-28T18:53:13;5.00;77.70